createdAt,value
2023-03-03T00:00:48.000Z,88.8
2023-03-03T00:02:04.000Z,88.5
2023-03-03T00:03:21.000Z,88.3
2023-03-03T00:04:37.000Z,88.1
2023-03-03T00:05:52.000Z,88.1
2023-03-03T00:07:08.000Z,88
2023-03-03T00:08:24.759Z,87.9
2023-03-03T00:09:41.000Z,88.1
2023-03-03T00:10:57.000Z,88.4
2023-03-03T00:12:13.000Z,88.7
2023-03-03T00:13:29.000Z,88.7
2023-03-03T00:14:45.000Z,88.3
2023-03-03T00:16:01.000Z,88.2
2023-03-03T00:17:18.000Z,88.3
2023-03-03T00:18:34.000Z,88.3
2023-03-03T00:19:50.000Z,88.1
2023-03-03T00:21:06.709Z,88
2023-03-03T00:22:21.000Z,88.2
2023-03-03T00:23:38.000Z,88.3
2023-03-03T00:24:54.000Z,88.3
2023-03-03T00:26:10.000Z,88.2
2023-03-03T00:27:26.000Z,88.1
2023-03-03T00:28:42.000Z,88.1
2023-03-03T00:29:58.000Z,88.2
2023-03-03T00:31:14.000Z,88.2
2023-03-03T00:32:30.000Z,88.3
2023-03-03T00:33:46.672Z,88.4
2023-03-03T00:35:02.000Z,88.4
2023-03-03T00:36:19.000Z,88.3
2023-03-03T00:37:35.000Z,88.3
2023-03-03T00:38:51.000Z,88.4
2023-03-03T00:40:07.000Z,88.7
2023-03-03T00:41:23.000Z,89.2
2023-03-03T00:42:40.000Z,89
2023-03-03T00:43:56.000Z,88.8
2023-03-03T00:45:12.000Z,88.5
2023-03-03T00:46:27.000Z,87.8
2023-03-03T00:47:43.000Z,87.8
2023-03-03T00:49:00.000Z,88
2023-03-03T00:50:16.000Z,88.1
2023-03-03T00:51:32.000Z,88.3
2023-03-03T00:52:48.000Z,88.8
2023-03-03T00:54:04.000Z,88.8
2023-03-03T00:55:21.000Z,88.8
2023-03-03T00:56:37.000Z,88.9
2023-03-03T00:57:53.000Z,88.7
2023-03-03T01:00:25.000Z,88.4
2023-03-03T01:01:42.000Z,88.6
2023-03-03T01:02:57.000Z,88.8
2023-03-03T01:04:13.000Z,88.9
2023-03-03T01:05:29.000Z,88.8
2023-03-03T01:06:45.000Z,88.9
2023-03-03T01:08:02.000Z,88.9
2023-03-03T01:09:18.000Z,89.1
2023-03-03T01:10:34.000Z,89.2
2023-03-03T01:11:50.512Z,88.9
2023-03-03T01:13:06.000Z,89
2023-03-03T01:14:22.000Z,88.8
2023-03-03T01:15:39.000Z,88.7
2023-03-03T01:16:55.000Z,88.3
2023-03-03T01:18:11.000Z,87.8
2023-03-03T01:19:26.000Z,87.8
2023-03-03T01:20:42.000Z,87.9
2023-03-03T01:21:59.000Z,88.1
2023-03-03T01:23:15.000Z,88.3
2023-03-03T01:24:31.000Z,88.3
2023-03-03T01:25:47.000Z,88
2023-03-03T01:27:03.000Z,87.9
2023-03-03T01:28:20.000Z,87.9
2023-03-03T01:29:36.000Z,87.6
2023-03-03T01:30:52.000Z,87.2
2023-03-03T01:32:08.000Z,86.8
2023-03-03T01:33:24.000Z,86.8
2023-03-03T01:34:41.000Z,86.5
2023-03-03T01:35:56.000Z,86.4
2023-03-03T01:37:12.436Z,86.1
2023-03-03T01:38:28.000Z,85.8
2023-03-03T01:39:44.000Z,85.5
2023-03-03T01:41:01.000Z,86
2023-03-03T01:42:17.000Z,86.5
2023-03-03T01:43:33.000Z,86.7
2023-03-03T01:44:49.000Z,86.8
2023-03-03T01:46:05.000Z,86.8
2023-03-03T01:47:22.000Z,86.9
2023-03-03T01:48:38.000Z,87
2023-03-03T01:49:54.361Z,86.9
2023-03-03T01:51:10.000Z,87.1
2023-03-03T01:52:25.000Z,87.6
2023-03-03T01:53:42.000Z,87.8
2023-03-03T01:54:58.000Z,88
2023-03-03T01:56:14.000Z,87.8
2023-03-03T01:57:30.000Z,87.4
2023-03-03T01:58:46.000Z,87
2023-03-03T02:00:02.000Z,86.7
2023-03-03T02:01:19.000Z,86.1
2023-03-03T02:02:35.000Z,85.8
2023-03-03T02:03:51.000Z,85.7
2023-03-03T02:05:07.000Z,85.5
2023-03-03T02:06:23.000Z,85.1
2023-03-03T02:07:40.000Z,85
2023-03-03T02:08:55.000Z,85.2
2023-03-03T02:10:11.000Z,85.8
2023-03-03T02:11:27.000Z,86.3
2023-03-03T02:12:43.000Z,86.6
2023-03-03T02:14:00.000Z,87.1
2023-03-03T02:15:16.000Z,87.7
2023-03-03T02:16:32.000Z,87.8
2023-03-03T02:17:48.000Z,87.9
2023-03-03T02:19:04.000Z,87.9
2023-03-03T02:20:21.000Z,87.9
2023-03-03T02:21:37.000Z,88
2023-03-03T02:22:53.000Z,87.8
2023-03-03T02:24:09.000Z,87.7
2023-03-03T02:25:24.000Z,87.5
2023-03-03T02:26:41.000Z,87.2
2023-03-03T02:27:57.233Z,86.9
2023-03-03T02:29:13.000Z,86.7
2023-03-03T02:30:29.000Z,86.9
2023-03-03T02:31:45.000Z,87.1
2023-03-03T02:33:02.000Z,87.5
2023-03-03T02:34:18.000Z,87.7
2023-03-03T02:35:34.000Z,87.9
2023-03-03T02:36:50.000Z,87.9
2023-03-03T02:38:06.000Z,87.9
2023-03-03T02:39:23.000Z,87.9
2023-03-03T02:40:39.163Z,88
2023-03-03T02:41:54.000Z,87.7
2023-03-03T02:43:10.000Z,88
2023-03-03T02:44:26.000Z,87.9
2023-03-03T02:45:43.000Z,87.7
2023-03-03T02:46:59.000Z,87.8
2023-03-03T02:48:15.000Z,88
2023-03-03T02:49:31.000Z,87.8
2023-03-03T02:50:47.000Z,87.5
2023-03-03T02:52:03.000Z,87.3
2023-03-03T02:53:20.000Z,87.3
2023-03-03T02:54:36.000Z,87.3
2023-03-03T02:55:52.000Z,87.4
2023-03-03T02:57:08.000Z,87.3
2023-03-03T02:58:23.000Z,87.2
2023-03-03T02:59:40.000Z,87.4
2023-03-03T03:00:56.000Z,87.5
2023-03-03T03:02:12.000Z,87.6
2023-03-03T03:03:28.000Z,87.8
2023-03-03T03:04:44.000Z,87.8
2023-03-03T03:06:01.069Z,87.7
2023-03-03T03:07:17.000Z,87.4
2023-03-03T03:08:33.000Z,87.3
2023-03-03T03:09:49.000Z,87.1
2023-03-03T03:11:05.000Z,86.8
2023-03-03T03:12:22.000Z,86.8
2023-03-03T03:13:38.000Z,86.8
2023-03-03T03:14:53.000Z,86.8
2023-03-03T03:16:09.000Z,87
2023-03-03T03:17:25.000Z,87.2
2023-03-03T03:18:42.031Z,87.8
2023-03-03T03:19:58.000Z,88.2
2023-03-03T03:21:14.000Z,88.7
2023-03-03T03:22:30.000Z,89
2023-03-03T03:23:46.000Z,89
2023-03-03T03:25:03.000Z,88.8
2023-03-03T03:26:19.000Z,89.1
2023-03-03T03:27:35.000Z,89.2
2023-03-03T03:28:51.000Z,89.1
2023-03-03T03:30:07.000Z,89.2
2023-03-03T03:31:23.000Z,89.1
2023-03-03T03:32:39.000Z,89.1
2023-03-03T03:33:55.000Z,89.1
2023-03-03T03:35:11.000Z,88.9
2023-03-03T03:36:27.000Z,88.6
2023-03-03T03:37:44.000Z,88.3
2023-03-03T03:39:00.000Z,88
2023-03-03T03:40:16.000Z,87.9
2023-03-03T03:41:32.000Z,87.7
2023-03-03T03:42:48.000Z,87.4
2023-03-03T03:44:04.000Z,87.3
2023-03-03T03:45:21.000Z,87.3
2023-03-03T03:46:37.000Z,87.3
2023-03-03T03:47:52.000Z,87.3
2023-03-03T03:49:08.000Z,87.4
2023-03-03T03:50:24.000Z,87.1
2023-03-03T03:51:41.000Z,86.9
2023-03-03T03:52:57.000Z,87.1
2023-03-03T03:54:13.000Z,87.1
2023-03-03T03:55:29.000Z,87.1
2023-03-03T03:56:45.858Z,87
2023-03-03T03:58:02.000Z,86.7
2023-03-03T03:59:18.000Z,86.8
2023-03-03T04:00:34.000Z,86.8
2023-03-03T04:01:50.000Z,86.7
2023-03-03T04:03:06.000Z,86.4
2023-03-03T04:04:22.000Z,86.3
2023-03-03T04:05:38.000Z,86.4
2023-03-03T04:06:54.000Z,86.8
2023-03-03T04:08:10.618Z,86.9
2023-03-03T04:09:26.000Z,86.9
2023-03-03T04:10:43.000Z,86.9
2023-03-03T04:11:59.000Z,87.2
2023-03-03T04:13:15.000Z,87.7
2023-03-03T04:14:31.000Z,87.8
2023-03-03T04:15:47.000Z,87.8
2023-03-03T04:17:04.000Z,87.7
2023-03-03T04:18:20.000Z,87.7
2023-03-03T04:19:36.000Z,87.8
2023-03-03T04:20:51.000Z,87.7
2023-03-03T04:22:07.000Z,87.6
2023-03-03T04:23:24.000Z,87.7
2023-03-03T04:24:40.000Z,87.6
2023-03-03T04:25:56.000Z,87.6
2023-03-03T04:27:12.000Z,87.2
2023-03-03T04:28:28.000Z,87.4
2023-03-03T04:29:45.000Z,87.6
2023-03-03T04:31:01.000Z,87.7
2023-03-03T04:32:17.000Z,87.7
2023-03-03T04:33:33.000Z,87.8
2023-03-03T04:34:49.000Z,87.8
2023-03-03T04:36:05.000Z,88.1
2023-03-03T04:37:21.000Z,88.2
2023-03-03T04:38:37.000Z,88.2
2023-03-03T04:39:53.000Z,88.2
2023-03-03T04:41:09.000Z,88.1
2023-03-03T04:42:25.000Z,88.1
2023-03-03T04:43:42.000Z,88
2023-03-03T04:44:57.000Z,88.1
2023-03-03T04:46:13.000Z,88.5
2023-03-03T04:47:29.000Z,88.7
2023-03-03T04:48:45.000Z,88.7
2023-03-03T04:50:02.000Z,88.3
2023-03-03T04:51:18.000Z,87.8
2023-03-03T04:52:34.000Z,87.6
2023-03-03T04:53:50.000Z,87.5
2023-03-03T04:55:06.000Z,88.1
2023-03-03T04:56:23.000Z,88.5
2023-03-03T04:57:39.000Z,88.4
2023-03-03T04:58:55.000Z,88
2023-03-03T05:00:11.617Z,87.8
2023-03-03T05:01:26.000Z,87.8
2023-03-03T05:02:43.000Z,87.7
2023-03-03T05:03:59.000Z,87.6
2023-03-03T05:05:15.000Z,87.7
2023-03-03T05:06:31.000Z,87.9
2023-03-03T05:07:47.000Z,88
2023-03-03T05:09:04.000Z,88
2023-03-03T05:10:20.000Z,88.2
2023-03-03T05:11:36.000Z,88.2
2023-03-03T05:12:52.575Z,87.9
2023-03-03T05:14:08.000Z,87.8
2023-03-03T05:15:25.000Z,88.1
2023-03-03T05:16:41.000Z,88.2
2023-03-03T05:17:56.000Z,88.2
2023-03-03T05:19:12.000Z,88.4
2023-03-03T05:20:28.000Z,88.5
2023-03-03T05:21:45.000Z,88.5
2023-03-03T05:23:01.000Z,88.4
2023-03-03T05:24:17.000Z,88
2023-03-03T05:25:33.000Z,87.9
2023-03-03T05:26:49.000Z,87.8
2023-03-03T05:28:05.000Z,87.9
2023-03-03T05:29:22.000Z,88.2
2023-03-03T05:30:38.000Z,88.4
2023-03-03T05:31:54.000Z,88.6
2023-03-03T05:33:10.000Z,88.6
2023-03-03T05:34:25.000Z,88.5
2023-03-03T05:35:42.000Z,88.6
2023-03-03T05:36:58.300Z,88.7
2023-03-03T05:38:14.482Z,88.7
2023-03-03T05:39:30.000Z,88.6
2023-03-03T05:40:46.000Z,88.7
2023-03-03T05:42:03.000Z,88.5
2023-03-03T05:43:19.000Z,88.4
2023-03-03T05:44:35.000Z,88.4
2023-03-03T05:45:51.000Z,88.6
2023-03-03T05:47:07.000Z,88.8
2023-03-03T05:48:24.000Z,89.1
2023-03-03T05:49:40.000Z,89.2
2023-03-03T05:50:55.445Z,89.1
2023-03-03T05:52:11.000Z,89
2023-03-03T05:53:27.000Z,88.9
2023-03-03T05:54:44.000Z,89
2023-03-03T05:56:00.000Z,88.9
2023-03-03T05:57:16.000Z,88.8
2023-03-03T05:58:32.000Z,89
2023-03-03T05:59:48.000Z,89.1
2023-03-03T06:01:05.000Z,89.7
2023-03-03T06:02:21.000Z,90.1
2023-03-03T06:03:37.369Z,90.3
2023-03-03T06:04:53.000Z,90.5
2023-03-03T06:06:09.000Z,90.2
2023-03-03T06:07:25.000Z,90.1
2023-03-03T06:08:41.000Z,90.2
2023-03-03T06:09:57.000Z,90.5
2023-03-03T06:11:13.000Z,90.5
2023-03-03T06:12:29.000Z,90.5
2023-03-03T06:13:46.000Z,90.5
2023-03-03T06:15:02.000Z,90.5
2023-03-03T06:16:18.328Z,90.5
2023-03-03T06:17:34.000Z,90.2
2023-03-03T06:18:50.000Z,90.2
2023-03-03T06:20:06.903Z,90.2
2023-03-03T06:21:23.000Z,90.2
2023-03-03T06:22:39.299Z,90
2023-03-03T06:23:54.000Z,89.9
2023-03-03T06:25:10.000Z,89.8
2023-03-03T06:26:26.000Z,89.7
2023-03-03T06:27:43.000Z,89.5
2023-03-03T06:28:59.000Z,88.9
2023-03-03T06:30:15.000Z,89.2
2023-03-03T06:31:31.000Z,89.4
2023-03-03T06:32:47.000Z,89.6
2023-03-03T06:34:04.000Z,89.9
2023-03-03T06:35:20.000Z,89.5
2023-03-03T06:36:36.000Z,89.7
2023-03-03T06:37:52.000Z,89.8
2023-03-03T06:39:08.000Z,89.9
2023-03-03T06:40:24.000Z,89.9
2023-03-03T06:41:40.000Z,89.9
2023-03-03T06:42:56.000Z,89.9
2023-03-03T06:44:12.000Z,89.5
2023-03-03T06:45:28.000Z,88.7
2023-03-03T06:46:45.000Z,88.6
2023-03-03T06:48:01.000Z,89
2023-03-03T06:49:17.000Z,89
2023-03-03T06:50:33.000Z,89.4
2023-03-03T06:51:49.795Z,89.7
2023-03-03T06:53:06.000Z,89.5
2023-03-03T06:54:22.000Z,89.3
2023-03-03T06:55:38.000Z,89.1
2023-03-03T06:56:53.000Z,88.8
2023-03-03T06:58:09.000Z,88.7
2023-03-03T06:59:26.000Z,88.6
2023-03-03T07:00:42.000Z,88.6
2023-03-03T07:01:58.000Z,88.8
2023-03-03T07:03:14.000Z,89.1
2023-03-03T07:04:30.000Z,89.3
2023-03-03T07:05:47.000Z,89.5
2023-03-03T07:07:03.000Z,89.3
2023-03-03T07:08:19.000Z,89
2023-03-03T07:09:35.000Z,89.1
2023-03-03T07:10:51.000Z,89
2023-03-03T07:12:07.000Z,88.8
2023-03-03T07:13:23.000Z,88.7
2023-03-03T07:14:39.000Z,88.3
2023-03-03T07:15:55.000Z,88.3
2023-03-03T07:17:11.000Z,88.2
2023-03-03T07:18:27.889Z,88.4
2023-03-03T07:19:44.088Z,88.3
2023-03-03T07:21:00.000Z,88.7
2023-03-03T07:22:16.000Z,88.7
2023-03-03T07:23:32.000Z,88.5
2023-03-03T07:24:48.000Z,88.3
2023-03-03T07:26:05.000Z,88.4
2023-03-03T07:27:21.000Z,88.5
2023-03-03T07:28:37.000Z,88.6
2023-03-03T07:29:52.000Z,88.8
2023-03-03T07:31:08.000Z,88.6
2023-03-03T07:32:25.045Z,88.4
2023-03-03T07:33:41.000Z,88
2023-03-03T07:34:57.420Z,87.7
2023-03-03T07:36:13.000Z,87.7
2023-03-03T07:37:29.000Z,87.8
2023-03-03T07:38:46.000Z,87.8
2023-03-03T07:40:02.000Z,87.9
2023-03-03T07:41:18.000Z,87.8
2023-03-03T07:42:34.000Z,87.9
2023-03-03T07:43:50.000Z,87.7
2023-03-03T07:45:06.979Z,87.6
2023-03-03T07:46:22.000Z,87.6
2023-03-03T07:47:38.000Z,87.5
2023-03-03T07:48:54.000Z,87.5
2023-03-03T07:50:10.000Z,87.9
2023-03-03T07:51:27.000Z,88.1
2023-03-03T07:52:43.146Z,88.1
2023-03-03T07:53:59.000Z,87.9
2023-03-03T07:55:15.000Z,87.6
2023-03-03T07:56:31.000Z,87.1
2023-03-03T07:57:48.000Z,86.8
2023-03-03T07:59:04.000Z,86.3
2023-03-03T08:00:20.000Z,86.1
2023-03-03T08:01:36.000Z,86.1
2023-03-03T08:02:51.000Z,86.1
2023-03-03T08:04:07.000Z,86.2
2023-03-03T08:05:24.000Z,86.1
2023-03-03T08:06:40.000Z,86.2
2023-03-03T08:07:56.000Z,86.8
2023-03-03T08:09:12.000Z,86.9
2023-03-03T08:10:28.000Z,87.2
2023-03-03T08:11:45.000Z,87.1
2023-03-03T08:13:01.000Z,87.1
2023-03-03T08:14:17.000Z,87.2
2023-03-03T08:15:33.000Z,86.9
2023-03-03T08:16:49.000Z,86.5
2023-03-03T08:18:06.000Z,86.2
2023-03-03T08:19:21.000Z,85.8
2023-03-03T08:20:37.000Z,85.7
2023-03-03T08:21:53.000Z,85.6
2023-03-03T08:23:09.000Z,85.7
2023-03-03T08:24:26.000Z,85.7
2023-03-03T08:25:42.000Z,85.4
2023-03-03T08:26:58.000Z,85.1
2023-03-03T08:28:14.000Z,85
2023-03-03T08:29:30.000Z,84.6
2023-03-03T08:30:47.000Z,84.8
2023-03-03T08:32:03.000Z,85
2023-03-03T08:33:19.000Z,85.1
2023-03-03T08:34:35.000Z,85.5
2023-03-03T08:35:50.785Z,85.6
2023-03-03T08:37:07.000Z,85.5
2023-03-03T08:38:23.000Z,85.5
2023-03-03T08:39:39.000Z,85.7
2023-03-03T08:40:55.000Z,85.7
2023-03-03T08:42:11.000Z,85.1
2023-03-03T08:43:28.000Z,84.8
2023-03-03T08:44:44.000Z,84.6
2023-03-03T08:46:00.000Z,84.4
2023-03-03T08:47:16.000Z,84.2
2023-03-03T08:48:32.000Z,83.9
2023-03-03T08:49:49.000Z,83.8
2023-03-03T08:51:05.000Z,84.2
2023-03-03T08:52:20.000Z,84.4
2023-03-03T08:53:36.000Z,84.6
2023-03-03T08:54:52.000Z,84.5
2023-03-03T08:56:08.000Z,84.4
2023-03-03T08:57:25.000Z,84.4
2023-03-03T08:58:41.000Z,84.2
2023-03-03T08:59:56.000Z,83.5
2023-03-03T09:01:12.000Z,83.1
2023-03-03T09:02:28.000Z,82.8
2023-03-03T09:03:45.000Z,82.7
2023-03-03T09:05:01.000Z,82.5
2023-03-03T09:06:17.000Z,82.5
2023-03-03T09:07:33.000Z,82.5
2023-03-03T09:08:49.000Z,82.7
2023-03-03T09:10:06.000Z,82.7
2023-03-03T09:11:22.000Z,82.8
2023-03-03T09:12:38.000Z,82.7
2023-03-03T09:13:54.000Z,82.6
2023-03-03T09:15:10.000Z,82.8
2023-03-03T09:16:26.000Z,82.7
2023-03-03T09:17:42.000Z,82.3
2023-03-03T09:18:58.000Z,82.3
2023-03-03T09:20:14.000Z,82.7
2023-03-03T09:21:30.000Z,82.5
2023-03-03T09:22:47.000Z,82.5
2023-03-03T09:24:03.000Z,82.3
2023-03-03T09:25:19.000Z,82
2023-03-03T09:26:35.000Z,81.6
2023-03-03T09:27:51.000Z,81.7
2023-03-03T09:29:08.000Z,81.5
2023-03-03T09:30:24.000Z,81
2023-03-03T09:31:40.000Z,80.8
2023-03-03T09:32:55.000Z,80.3
2023-03-03T09:34:11.000Z,80.1
2023-03-03T09:35:28.000Z,80
2023-03-03T09:36:44.000Z,78.5
2023-03-03T09:38:00.000Z,77.7
2023-03-03T09:39:16.000Z,77.5
2023-03-03T09:40:32.000Z,77.4
2023-03-03T09:41:49.000Z,77.5
2023-03-03T09:43:05.000Z,77.7
2023-03-03T09:44:21.000Z,78.1
2023-03-03T09:45:37.000Z,78
2023-03-03T09:46:53.000Z,77.5
2023-03-03T09:48:10.000Z,77.1
2023-03-03T09:49:25.000Z,76.8
2023-03-03T09:50:41.000Z,76.2
2023-03-03T09:51:57.000Z,75.5
2023-03-03T09:53:13.000Z,75.5
2023-03-03T09:54:30.000Z,75.6
2023-03-03T09:55:46.000Z,75.5
2023-03-03T09:57:02.000Z,75.2
2023-03-03T09:58:18.000Z,74.9
2023-03-03T09:59:34.000Z,75.2
2023-03-03T10:00:50.000Z,75.2
2023-03-03T10:02:07.000Z,75.4
2023-03-03T10:03:23.000Z,75.7
2023-03-03T10:04:39.493Z,75.6
2023-03-03T10:05:54.000Z,75.3
2023-03-03T10:07:10.000Z,75.5
2023-03-03T10:08:27.000Z,75.6
2023-03-03T10:09:43.000Z,75.7
2023-03-03T10:10:59.000Z,76.3
2023-03-03T10:12:15.000Z,76.5
2023-03-03T10:13:31.000Z,76.7
2023-03-03T10:14:48.000Z,76.9
2023-03-03T10:16:04.000Z,77.2
2023-03-03T10:17:20.475Z,77.6
2023-03-03T10:18:36.000Z,77.9
2023-03-03T10:19:52.000Z,77.8
2023-03-03T10:21:09.000Z,77.6
2023-03-03T10:22:24.000Z,77.6
2023-03-03T10:23:40.000Z,77.9
2023-03-03T10:24:56.000Z,78.1
2023-03-03T10:26:12.000Z,78.2
2023-03-03T10:27:29.000Z,78.2
2023-03-03T10:28:45.000Z,78.1
2023-03-03T10:30:01.000Z,78
2023-03-03T10:31:17.000Z,78
2023-03-03T10:32:33.000Z,78.2
2023-03-03T10:33:50.000Z,78.3
2023-03-03T10:35:06.000Z,78.2
2023-03-03T10:36:22.000Z,78.3
2023-03-03T10:37:38.000Z,78.3
2023-03-03T10:38:53.000Z,78.5
2023-03-03T10:40:10.000Z,78.4
2023-03-03T10:41:26.000Z,78.4
2023-03-03T10:42:42.418Z,78.4
2023-03-03T10:43:58.000Z,78.5
2023-03-03T10:45:14.000Z,78.9
2023-03-03T10:46:31.000Z,80.1
2023-03-03T10:47:47.000Z,79.4
2023-03-03T10:49:03.000Z,78.2
2023-03-03T10:50:19.000Z,77.7
2023-03-03T10:51:35.000Z,77.3
2023-03-03T10:52:52.000Z,76.9
2023-03-03T10:54:08.000Z,76.9
2023-03-03T10:55:23.000Z,76.9
2023-03-03T10:56:39.000Z,76.8
2023-03-03T10:57:55.000Z,77.1
2023-03-03T10:59:12.000Z,77.1
2023-03-03T11:00:28.000Z,77.1
2023-03-03T11:01:44.000Z,77.3
2023-03-03T11:03:00.566Z,77.1
2023-03-03T11:04:16.000Z,76.7
2023-03-03T11:05:33.000Z,76.7
2023-03-03T11:06:49.000Z,76.6
2023-03-03T11:08:05.000Z,76.8
2023-03-03T11:09:21.000Z,76.8
2023-03-03T11:10:37.000Z,76.5
2023-03-03T11:11:53.000Z,76.9
2023-03-03T11:13:09.000Z,76.9
2023-03-03T11:14:25.000Z,76.8
2023-03-03T11:15:41.000Z,76.9
2023-03-03T11:16:57.000Z,76.9
2023-03-03T11:18:14.000Z,76.7
2023-03-03T11:19:30.000Z,76.8
2023-03-03T11:20:46.000Z,76.8
2023-03-03T11:22:02.000Z,76.7
2023-03-03T11:23:18.000Z,76.8
2023-03-03T11:24:34.000Z,76.7
2023-03-03T11:25:51.000Z,76.3
2023-03-03T11:27:07.000Z,76.5
2023-03-03T11:28:22.000Z,76.4
2023-03-03T11:29:38.000Z,76
2023-03-03T11:30:54.000Z,75.8
2023-03-03T11:32:11.000Z,75.8
2023-03-03T11:33:27.282Z,75.4
2023-03-03T11:34:43.000Z,75.5
2023-03-03T11:35:59.672Z,75.5
2023-03-03T11:37:15.000Z,75.4
2023-03-03T11:38:32.000Z,75.4
2023-03-03T11:39:48.000Z,75.4
2023-03-03T11:41:04.000Z,75.5
2023-03-03T11:42:20.000Z,75.1
2023-03-03T11:43:36.000Z,75.3
2023-03-03T11:44:52.000Z,74.9
2023-03-03T11:46:08.000Z,74.9
2023-03-03T11:47:24.000Z,74.8
2023-03-03T11:48:40.000Z,74.6
2023-03-03T11:49:56.000Z,74
2023-03-03T11:51:13.000Z,73.9
2023-03-03T11:52:29.000Z,74.1
2023-03-03T11:53:45.000Z,73.8
2023-03-03T11:55:01.000Z,73.8
2023-03-03T11:56:17.000Z,73.6
2023-03-03T11:57:34.000Z,73.4
2023-03-03T11:58:50.000Z,73.3
2023-03-03T12:00:06.000Z,73.4
2023-03-03T12:01:21.000Z,73.5
2023-03-03T12:02:37.000Z,73.4
2023-03-03T12:03:54.000Z,73.4
2023-03-03T12:05:10.000Z,73.5
2023-03-03T12:06:26.000Z,72.9
2023-03-03T12:07:42.000Z,72.5
2023-03-03T12:08:58.000Z,72.2
2023-03-03T12:10:14.985Z,72
2023-03-03T12:11:31.189Z,71.5
2023-03-03T12:12:47.000Z,71.4
2023-03-03T12:14:03.000Z,70.9
2023-03-03T12:15:19.000Z,70.6
2023-03-03T12:16:36.000Z,70.6
2023-03-03T12:17:51.000Z,70.8
2023-03-03T12:19:07.000Z,70.8
2023-03-03T12:20:23.000Z,71.1
2023-03-03T12:21:39.000Z,71.2
2023-03-03T12:22:55.958Z,71
2023-03-03T12:24:12.147Z,71.2
2023-03-03T12:25:28.000Z,71.4
2023-03-03T12:26:44.000Z,71.4
2023-03-03T12:28:00.745Z,71.3
2023-03-03T12:29:17.000Z,71.1
2023-03-03T12:30:33.000Z,70.8
2023-03-03T12:31:49.000Z,70.4
2023-03-03T12:33:05.000Z,70.1
2023-03-03T12:34:20.000Z,70.5
2023-03-03T12:35:37.000Z,70.6
2023-03-03T12:36:53.000Z,70.2
2023-03-03T12:38:09.000Z,70.2
2023-03-03T12:39:25.000Z,70
2023-03-03T12:40:41.000Z,70.1
2023-03-03T12:41:58.000Z,69.9
2023-03-03T12:43:14.000Z,69.9
2023-03-03T12:44:30.000Z,70.2
2023-03-03T12:45:46.000Z,70.1
2023-03-03T12:47:02.000Z,69.9
2023-03-03T12:48:18.000Z,69.6
2023-03-03T12:49:35.000Z,69.5
2023-03-03T12:50:50.000Z,69.3
2023-03-03T12:52:06.000Z,69.3
2023-03-03T12:53:22.000Z,69.1
2023-03-03T12:54:38.000Z,68.8
2023-03-03T12:55:55.000Z,68.5
2023-03-03T12:57:11.000Z,68.7
2023-03-03T12:58:27.000Z,69.1
2023-03-03T12:59:43.000Z,69.2
2023-03-03T13:00:59.000Z,69
2023-03-03T13:02:16.052Z,69
2023-03-03T13:03:32.000Z,69.8
2023-03-03T13:04:48.000Z,70.6
2023-03-03T13:06:04.000Z,71.1
2023-03-03T13:07:19.000Z,71.4
2023-03-03T13:08:36.000Z,71.3
2023-03-03T13:09:52.000Z,71.1
2023-03-03T13:11:08.000Z,70.8
2023-03-03T13:12:24.000Z,71.1
2023-03-03T13:13:40.000Z,71.4
2023-03-03T13:14:56.000Z,71.7
2023-03-03T13:16:12.000Z,72
2023-03-03T13:17:28.000Z,72.1
2023-03-03T13:18:44.000Z,72.3
2023-03-03T13:20:00.000Z,72.3
2023-03-03T13:21:17.000Z,72.1
2023-03-03T13:22:33.000Z,71.9
2023-03-03T13:23:49.000Z,71.5
2023-03-03T13:25:05.000Z,71.3
2023-03-03T13:26:21.000Z,70.9
2023-03-03T13:27:38.000Z,70.5
2023-03-03T13:28:54.000Z,70.4
2023-03-03T13:30:10.000Z,70.8
2023-03-03T13:31:25.000Z,70.8
2023-03-03T13:32:41.000Z,70.5
2023-03-03T13:33:58.000Z,71
2023-03-03T13:35:14.000Z,71.4
2023-03-03T13:36:30.000Z,71.5
2023-03-03T13:37:46.000Z,71.8
2023-03-03T13:39:02.000Z,72.3
2023-03-03T13:40:18.994Z,72.3
2023-03-03T13:41:35.000Z,72.3
2023-03-03T13:42:51.000Z,71.8
2023-03-03T13:44:07.000Z,71.6
2023-03-03T13:45:23.000Z,71.4
2023-03-03T13:46:40.000Z,71.3
2023-03-03T13:47:55.000Z,71.3
2023-03-03T13:49:11.000Z,71.2
2023-03-03T13:50:27.000Z,70.8
2023-03-03T13:51:43.000Z,71.6
2023-03-03T13:52:59.965Z,72.2
2023-03-03T13:54:16.000Z,72.6
2023-03-03T13:55:32.000Z,72.8
2023-03-03T13:56:48.000Z,72.7
2023-03-03T13:58:04.000Z,72.7
2023-03-03T13:59:21.000Z,72.7
2023-03-03T14:00:37.000Z,72.6
2023-03-03T14:01:53.000Z,72.9
2023-03-03T14:03:09.000Z,72.9
2023-03-03T14:04:24.000Z,73
2023-03-03T14:05:41.000Z,73.4
2023-03-03T14:06:57.000Z,73.4
2023-03-03T14:08:13.000Z,73.7
2023-03-03T14:09:29.000Z,73.8
2023-03-03T14:10:45.000Z,73.8
2023-03-03T14:12:02.000Z,73.6
2023-03-03T14:13:18.000Z,73.3
2023-03-03T14:14:34.000Z,73.6
2023-03-03T14:15:50.000Z,73.8
2023-03-03T14:17:06.000Z,74.2
2023-03-03T14:18:22.000Z,74.3
2023-03-03T14:19:39.000Z,74.2
2023-03-03T14:20:54.000Z,74
2023-03-03T14:22:10.000Z,76.6
2023-03-03T14:23:26.000Z,76.9
2023-03-03T14:24:42.000Z,74.4
2023-03-03T14:25:59.000Z,73.4
2023-03-03T14:27:15.000Z,72.8
2023-03-03T14:28:31.000Z,72.7
2023-03-03T14:29:47.000Z,73
2023-03-03T14:31:03.953Z,73.2
2023-03-03T14:32:20.000Z,73.4
2023-03-03T14:33:36.000Z,73.4
2023-03-03T14:34:52.000Z,73.2
2023-03-03T14:36:08.000Z,72.9
2023-03-03T14:37:23.000Z,73.4
2023-03-03T14:38:40.000Z,73.7
2023-03-03T14:39:56.000Z,73.7
2023-03-03T14:41:12.000Z,73.6
2023-03-03T14:42:28.000Z,74
2023-03-03T14:43:44.000Z,74.3
2023-03-03T14:45:01.000Z,74.2
2023-03-03T14:46:17.000Z,74.2
2023-03-03T14:47:33.000Z,74.4
2023-03-03T14:48:49.000Z,74.3
2023-03-03T14:50:05.000Z,74.3
2023-03-03T14:51:22.000Z,74.3
2023-03-03T14:52:38.000Z,74.3
2023-03-03T14:53:53.000Z,73.9
2023-03-03T14:55:09.000Z,73.8
2023-03-03T14:56:25.000Z,73.5
2023-03-03T14:57:42.000Z,73.3
2023-03-03T14:58:58.000Z,74
2023-03-03T15:00:14.000Z,74.5
2023-03-03T15:01:30.000Z,74.7
2023-03-03T15:02:46.000Z,74.6
2023-03-03T15:04:03.000Z,74.6
2023-03-03T15:05:19.000Z,74.5
2023-03-03T15:06:35.451Z,74.3
2023-03-03T15:07:51.000Z,74.5
2023-03-03T15:09:07.000Z,74.5
2023-03-03T15:10:23.000Z,74.3
2023-03-03T15:11:39.000Z,74.3
2023-03-03T15:12:55.000Z,74.3
2023-03-03T15:14:11.000Z,74.1
2023-03-03T15:15:27.000Z,73.9
2023-03-03T15:16:44.000Z,73.7
2023-03-03T15:18:00.000Z,73.6
2023-03-03T15:19:16.437Z,73.5
2023-03-03T15:20:32.000Z,73.6
2023-03-03T15:21:48.829Z,73.7
2023-03-03T15:23:05.000Z,73.7
2023-03-03T15:24:21.000Z,73.6
2023-03-03T15:25:37.000Z,73.5
2023-03-03T15:26:52.000Z,73.4
2023-03-03T15:28:08.821Z,73.4
2023-03-03T15:29:25.000Z,73.3
2023-03-03T15:30:41.000Z,73.3
2023-03-03T15:31:57.401Z,73.2
2023-03-03T15:33:13.000Z,73.3
2023-03-03T15:34:29.802Z,73.3
2023-03-03T15:35:46.000Z,73.4
2023-03-03T15:37:02.000Z,73.5
2023-03-03T15:38:18.000Z,73.6
2023-03-03T15:39:34.000Z,73.5
2023-03-03T15:40:50.000Z,73.5
2023-03-03T15:42:06.000Z,73.6
2023-03-03T15:43:22.000Z,73.6
2023-03-03T15:44:38.000Z,73.7
2023-03-03T15:45:54.000Z,73.6
2023-03-03T15:47:10.781Z,73.7
2023-03-03T15:48:26.000Z,73.6
2023-03-03T15:49:43.000Z,73.7
2023-03-03T15:50:59.000Z,73.8
2023-03-03T15:52:15.000Z,73.7
2023-03-03T15:53:31.750Z,73.7
2023-03-03T15:54:47.000Z,73.6
2023-03-03T15:56:04.000Z,73.6
2023-03-03T15:57:20.000Z,73.8
2023-03-03T15:58:36.000Z,75.3
2023-03-03T15:59:51.756Z,75.7
2023-03-03T16:01:07.000Z,75.4
2023-03-03T16:02:24.000Z,74.7
2023-03-03T16:03:40.000Z,75.1
2023-03-03T16:04:56.000Z,74.6
2023-03-03T16:06:12.000Z,74.2
2023-03-03T16:07:28.000Z,74
2023-03-03T16:08:45.000Z,74.2
2023-03-03T16:10:01.000Z,74.1
2023-03-03T16:11:17.000Z,74.2
2023-03-03T16:12:33.000Z,74.3
2023-03-03T16:13:49.000Z,74.3
2023-03-03T16:15:06.000Z,74.3
2023-03-03T16:16:21.000Z,74.3
2023-03-03T16:17:37.000Z,74.3
2023-03-03T16:18:53.000Z,74.3
2023-03-03T16:20:09.000Z,74.6
2023-03-03T16:21:26.000Z,74.5
2023-03-03T16:22:42.000Z,74.5
2023-03-03T16:23:58.000Z,74.7
2023-03-03T16:25:14.676Z,74.8
2023-03-03T16:26:30.000Z,74.8
2023-03-03T16:27:47.000Z,74.9
2023-03-03T16:29:03.000Z,74.9
2023-03-03T16:30:19.000Z,75.1
2023-03-03T16:31:35.000Z,75.2
2023-03-03T16:32:50.000Z,75.5
2023-03-03T16:34:07.000Z,75.7
2023-03-03T16:35:23.000Z,75.7
2023-03-03T16:36:39.000Z,75.8
2023-03-03T16:37:55.000Z,75.7
2023-03-03T16:39:11.000Z,75.7
2023-03-03T16:40:28.000Z,75.6
2023-03-03T16:41:44.000Z,75.9
2023-03-03T16:43:00.000Z,76
2023-03-03T16:44:16.000Z,76
2023-03-03T16:45:32.000Z,75.6
2023-03-03T16:46:49.000Z,75.5
2023-03-03T16:48:05.000Z,75.4
2023-03-03T16:49:20.000Z,75.9
2023-03-03T16:50:36.000Z,75.9
2023-03-03T16:51:52.000Z,75.4
2023-03-03T16:53:09.000Z,75.1
2023-03-03T16:54:25.000Z,75
2023-03-03T16:55:41.000Z,74.9
2023-03-03T16:56:57.000Z,74.9
2023-03-03T16:58:13.000Z,75
2023-03-03T16:59:30.000Z,75